createdAt,value
2018-03-21T00:00:10.380Z,5.10
2018-03-21T00:02:44.153Z,4.40
2018-03-21T00:05:18.670Z,4.90
2018-03-21T00:07:52.621Z,4.87
2018-03-21T00:13:07.095Z,5.07
2018-03-21T00:15:40.911Z,7.60
2018-03-21T00:18:15.053Z,6.00
2018-03-21T00:20:48.887Z,4.93
2018-03-21T00:23:22.723Z,5.20
2018-03-21T00:25:56.363Z,5.10
2018-03-21T00:28:30.050Z,4.63
2018-03-21T00:31:05.070Z,6.30
2018-03-21T00:33:39.309Z,4.93
2018-03-21T00:36:13.850Z,4.33
2018-03-21T00:38:47.737Z,5.37
2018-03-21T00:41:22.270Z,4.60
2018-03-21T00:43:56.189Z,4.77
2018-03-21T00:46:30.505Z,4.40
2018-03-21T00:49:04.639Z,5.23
2018-03-21T00:51:38.460Z,4.53
2018-03-21T00:54:12.270Z,5.07
2018-03-21T00:56:45.994Z,5.27
2018-03-21T00:59:19.797Z,5.50
2018-03-21T01:01:53.552Z,5.13
2018-03-21T01:04:28.284Z,4.37
2018-03-21T01:07:02.429Z,6.10
2018-03-21T01:09:36.112Z,6.00
2018-03-21T01:12:09.813Z,5.37
2018-03-21T01:14:43.567Z,4.47
2018-03-21T01:17:17.438Z,4.40
2018-03-21T01:19:51.874Z,4.70
2018-03-21T01:22:26.653Z,4.70
2018-03-21T01:25:00.516Z,5.40
2018-03-21T01:27:34.607Z,4.90
2018-03-21T01:30:08.484Z,4.23
2018-03-21T01:32:42.281Z,3.80
2018-03-21T01:35:16.925Z,4.80
2018-03-21T01:37:50.774Z,4.00
2018-03-21T01:40:24.552Z,4.83
2018-03-21T01:42:58.250Z,3.77
2018-03-21T01:45:32.012Z,3.90
2018-03-21T01:48:05.609Z,4.10
2018-03-21T01:50:39.474Z,3.77
2018-03-21T01:53:13.137Z,4.43
2018-03-21T01:55:47.700Z,3.77
2018-03-21T01:58:21.331Z,4.10
2018-03-21T02:00:55.036Z,4.20
2018-03-21T02:03:29.681Z,4.20
2018-03-21T02:06:03.686Z,4.47
2018-03-21T02:08:37.391Z,4.70
2018-03-21T02:11:11.164Z,3.93
2018-03-21T02:13:44.976Z,4.80
2018-03-21T02:16:18.837Z,3.33
2018-03-21T02:18:52.589Z,3.53
2018-03-21T02:21:27.080Z,4.10
2018-03-21T02:24:00.977Z,3.60
2018-03-21T02:26:34.815Z,4.00
2018-03-21T02:29:08.541Z,4.90
2018-03-21T02:31:42.155Z,4.70
2018-03-21T02:34:16.698Z,3.90
2018-03-21T02:36:50.565Z,4.37
2018-03-21T02:39:25.253Z,6.43
2018-03-21T02:41:59.265Z,5.20
2018-03-21T02:44:34.068Z,5.10
2018-03-21T02:47:08.901Z,5.23
2018-03-21T02:49:42.793Z,4.67
2018-03-21T02:52:16.450Z,5.27
2018-03-21T02:54:50.106Z,5.00
2018-03-21T02:57:23.866Z,5.27
2018-03-21T02:59:57.596Z,5.57
2018-03-21T03:02:31.427Z,5.80
2018-03-21T03:05:05.149Z,5.77
2018-03-21T03:07:39.615Z,5.63
2018-03-21T03:10:13.598Z,6.37
2018-03-21T03:12:47.410Z,5.70
2018-03-21T03:15:22.124Z,5.40
2018-03-21T03:17:56.149Z,5.40
2018-03-21T03:20:30.241Z,5.37
2018-03-21T03:23:04.665Z,5.53
2018-03-21T03:25:38.673Z,5.30
2018-03-21T03:28:13.405Z,5.93
2018-03-21T03:30:47.474Z,6.53
2018-03-21T03:33:21.123Z,6.83
2018-03-21T03:35:55.373Z,5.77
2018-03-21T03:38:29.996Z,5.23
2018-03-21T03:41:03.797Z,6.13
2018-03-21T03:43:37.707Z,5.53
2018-03-21T03:46:11.478Z,5.03
2018-03-21T03:48:46.009Z,5.60
2018-03-21T03:51:20.154Z,4.90
2018-03-21T03:53:59.761Z,6.23
2018-03-21T03:56:34.806Z,5.63
2018-03-21T03:59:08.922Z,5.80
2018-03-21T04:01:42.714Z,5.30
2018-03-21T04:04:16.782Z,6.00
2018-03-21T04:06:51.080Z,4.93
2018-03-21T04:09:24.710Z,5.20
2018-03-21T04:11:58.563Z,5.33
2018-03-21T04:14:32.965Z,5.63
2018-03-21T04:17:07.561Z,6.07
2018-03-21T04:19:41.528Z,5.00
2018-03-21T04:22:16.202Z,4.90
2018-03-21T04:24:50.497Z,5.63
2018-03-21T04:27:24.239Z,5.33
2018-03-21T04:29:58.775Z,5.60
2018-03-21T04:32:33.770Z,5.70
2018-03-21T04:35:07.800Z,5.37
2018-03-21T04:37:41.620Z,7.10
2018-03-21T04:40:15.505Z,6.53
2018-03-21T04:42:49.238Z,7.07
2018-03-21T04:45:23.527Z,6.20
2018-03-21T04:47:57.739Z,8.53
2018-03-21T04:50:32.231Z,6.60
2018-03-21T04:53:06.826Z,5.70
2018-03-21T04:55:42.065Z,6.10
2018-03-21T04:58:16.948Z,6.00
2018-03-21T05:00:51.140Z,6.77
2018-03-21T05:03:25.155Z,6.23
2018-03-21T05:05:59.830Z,7.60
2018-03-21T05:08:34.652Z,7.33
2018-03-21T05:11:08.616Z,6.90
2018-03-21T05:13:42.171Z,5.70
2018-03-21T05:16:16.152Z,6.30
2018-03-21T05:18:50.390Z,6.43
2018-03-21T05:21:25.548Z,7.00
2018-03-21T05:23:59.422Z,6.43
2018-03-21T05:26:33.173Z,6.70
2018-03-21T05:29:07.031Z,7.37
2018-03-21T05:31:40.705Z,6.97
2018-03-21T05:34:14.538Z,6.70
2018-03-21T05:36:48.393Z,6.23
2018-03-21T05:39:22.494Z,6.50
2018-03-21T05:41:56.318Z,6.90
2018-03-21T05:44:30.231Z,7.00
2018-03-21T05:47:04.072Z,6.13
2018-03-21T05:49:38.013Z,7.23
2018-03-21T05:52:11.810Z,6.30
2018-03-21T05:54:45.786Z,6.00
2018-03-21T05:57:19.646Z,5.90
2018-03-21T05:59:53.713Z,6.03
2018-03-21T06:02:27.496Z,5.87
2018-03-21T06:05:02.817Z,6.67
2018-03-21T06:07:37.772Z,7.40
2018-03-21T06:10:11.925Z,6.33
2018-03-21T06:12:46.229Z,5.60
2018-03-21T06:15:20.526Z,5.47
2018-03-21T06:17:54.362Z,5.97
2018-03-21T06:20:28.381Z,6.33
2018-03-21T06:23:02.763Z,5.20
2018-03-21T06:25:36.592Z,5.30
2018-03-21T06:28:10.369Z,5.40
2018-03-21T06:30:44.041Z,5.80
2018-03-21T06:33:17.811Z,4.83
2018-03-21T06:35:51.730Z,5.20
2018-03-21T06:38:25.427Z,5.67
2018-03-21T06:40:59.926Z,4.73
2018-03-21T06:43:34.449Z,4.70
2018-03-21T06:46:08.089Z,4.80
2018-03-21T06:48:41.805Z,4.83
2018-03-21T06:51:16.228Z,4.40
2018-03-21T06:53:50.738Z,4.27
2018-03-21T06:56:24.504Z,4.50
2018-03-21T06:58:58.929Z,4.73
2018-03-21T07:01:33.082Z,4.60
2018-03-21T07:04:06.876Z,4.13
2018-03-21T07:06:41.403Z,5.27
2018-03-21T07:09:15.479Z,4.47
2018-03-21T07:11:49.426Z,3.60
2018-03-21T07:14:35.489Z,4.27
2018-03-21T07:17:11.402Z,4.27
2018-03-21T07:19:45.376Z,4.97
2018-03-21T07:22:19.278Z,5.00
2018-03-21T07:24:54.062Z,4.53
2018-03-21T07:27:27.765Z,4.60
2018-03-21T07:30:02.399Z,5.17
2018-03-21T07:32:36.376Z,5.07
2018-03-21T07:35:10.166Z,4.73
2018-03-21T07:37:44.903Z,5.87
2018-03-21T07:40:19.066Z,4.90
2018-03-21T07:42:52.886Z,4.80
2018-03-21T07:45:27.414Z,4.80
2018-03-21T07:48:02.282Z,4.80
2018-03-21T07:50:36.271Z,5.23
2018-03-21T07:53:10.039Z,5.67
2018-03-21T07:55:43.788Z,7.37
2018-03-21T07:58:18.554Z,5.87
2018-03-21T08:00:53.290Z,4.30
2018-03-21T08:03:27.736Z,5.10
2018-03-21T08:06:01.704Z,4.83
2018-03-21T08:08:35.467Z,6.00
2018-03-21T08:11:09.735Z,4.80
2018-03-21T08:13:43.682Z,5.97
2018-03-21T08:16:18.643Z,5.40
2018-03-21T08:18:52.420Z,5.90
2018-03-21T08:21:26.245Z,4.40
2018-03-21T08:24:00.942Z,3.87
2018-03-21T08:26:35.273Z,4.80
2018-03-21T08:29:09.345Z,4.90
2018-03-21T08:31:43.605Z,4.67
2018-03-21T08:34:18.389Z,4.60
2018-03-21T08:36:52.664Z,5.70
2018-03-21T08:39:26.308Z,6.73
2018-03-21T08:42:01.199Z,5.30
2018-03-21T08:44:35.272Z,4.73
2018-03-21T08:47:09.105Z,4.60
2018-03-21T08:49:42.880Z,5.07
2018-03-21T08:52:16.656Z,7.33
2018-03-21T08:54:50.450Z,4.60
2018-03-21T08:57:24.334Z,5.70
2018-03-21T08:59:58.105Z,4.60
2018-03-21T09:02:32.337Z,4.60
2018-03-21T09:05:07.250Z,5.20
2018-03-21T09:07:41.450Z,4.80
2018-03-21T09:10:16.074Z,5.80
2018-03-21T09:12:50.724Z,5.00
2018-03-21T09:15:24.935Z,5.60
2018-03-21T09:17:59.551Z,4.57
2018-03-21T09:20:33.535Z,4.90
2018-03-21T09:23:08.290Z,4.60
2018-03-21T09:25:42.457Z,4.00
2018-03-21T09:28:16.266Z,5.00
2018-03-21T09:30:50.086Z,4.90
2018-03-21T09:33:24.057Z,4.43
2018-03-21T09:35:58.019Z,3.70
2018-03-21T09:38:32.090Z,4.77
2018-03-21T09:41:06.739Z,4.27
2018-03-21T09:43:41.752Z,4.50
2018-03-21T09:46:15.865Z,3.30
2018-03-21T09:48:50.255Z,3.70
2018-03-21T09:51:24.034Z,4.40
2018-03-21T09:53:59.014Z,3.87
2018-03-21T09:56:33.425Z,3.83
2018-03-21T09:59:07.170Z,3.50
2018-03-21T10:01:41.118Z,3.00
2018-03-21T10:04:14.964Z,3.57
2018-03-21T10:06:49.564Z,4.50
2018-03-21T10:09:23.782Z,5.00
2018-03-21T10:11:57.677Z,4.40
2018-03-21T10:14:31.603Z,4.50
2018-03-21T10:17:05.534Z,3.50
2018-03-21T10:19:39.273Z,3.73
2018-03-21T10:22:13.158Z,3.97
2018-03-21T10:24:47.851Z,3.27
2018-03-21T10:27:21.950Z,4.20
2018-03-21T10:29:56.097Z,3.70
2018-03-21T10:32:30.478Z,4.83
2018-03-21T10:35:04.883Z,4.87
2018-03-21T10:37:39.623Z,4.80
2018-03-21T10:40:13.858Z,4.30
2018-03-21T10:42:47.680Z,4.23
2018-03-21T10:45:21.575Z,3.60
2018-03-21T10:47:55.473Z,3.90
2018-03-21T10:50:29.360Z,4.57
2018-03-21T10:53:03.006Z,3.73
2018-03-21T10:55:37.202Z,4.50
2018-03-21T10:58:11.044Z,3.43
2018-03-21T11:00:45.179Z,4.00
2018-03-21T11:03:19.173Z,2.90
2018-03-21T11:05:53.869Z,4.90
2018-03-21T11:08:28.125Z,3.70
2018-03-21T11:11:02.632Z,3.57
2018-03-21T11:13:36.758Z,9.07
2018-03-21T11:16:11.316Z,3.83
2018-03-21T11:18:45.478Z,3.97
2018-03-21T11:21:19.309Z,3.23
2018-03-21T11:23:53.178Z,3.30
2018-03-21T11:26:27.697Z,3.23
2018-03-21T11:29:02.487Z,8.17
2018-03-21T11:31:36.837Z,15.93
2018-03-21T11:34:10.511Z,3.37
2018-03-21T11:36:45.333Z,3.10
2018-03-21T11:39:19.598Z,3.77
2018-03-21T11:41:53.535Z,4.30
2018-03-21T11:44:27.444Z,3.50
2018-03-21T11:47:01.336Z,4.30
2018-03-21T11:49:35.130Z,3.27
2018-03-21T11:52:09.343Z,3.77
2018-03-21T11:54:45.880Z,4.40
2018-03-21T11:57:20.025Z,8.50
2018-03-21T11:59:54.729Z,8.33
2018-03-21T12:02:28.805Z,3.47
2018-03-21T12:05:02.707Z,4.33
2018-03-21T12:07:37.478Z,5.60
2018-03-21T12:10:11.511Z,3.63
2018-03-21T12:12:45.632Z,3.40
2018-03-21T12:15:19.370Z,3.60
2018-03-21T12:17:53.940Z,3.67
2018-03-21T12:20:28.049Z,3.13
2018-03-21T12:23:02.553Z,3.97
2018-03-21T12:25:36.921Z,2.60
2018-03-21T12:28:11.405Z,2.63
2018-03-21T12:30:45.329Z,2.73
2018-03-21T12:33:19.814Z,2.80
2018-03-21T12:35:53.963Z,3.20
2018-03-21T12:38:27.880Z,3.90
2018-03-21T12:41:01.543Z,4.30
2018-03-21T12:43:35.407Z,4.33
2018-03-21T12:46:09.872Z,5.10
2018-03-21T12:48:43.878Z,4.37
2018-03-21T12:51:17.771Z,5.10
2018-03-21T12:53:51.443Z,5.23
2018-03-21T12:56:26.589Z,4.87
2018-03-21T12:59:01.383Z,5.43
2018-03-21T13:01:36.024Z,7.07
2018-03-21T13:04:10.403Z,6.50
2018-03-21T13:06:45.183Z,6.10
2018-03-21T13:09:19.425Z,6.67
2018-03-21T13:11:53.403Z,6.77
2018-03-21T13:14:27.314Z,6.60
2018-03-21T13:17:01.935Z,7.00
2018-03-21T13:19:35.927Z,7.87
2018-03-21T13:22:10.006Z,7.40
2018-03-21T13:24:45.152Z,8.07
2018-03-21T13:27:19.411Z,8.27
2018-03-21T13:29:53.002Z,7.97
2018-03-21T13:32:27.291Z,7.70
2018-03-21T13:35:01.237Z,7.80
2018-03-21T13:37:35.100Z,6.17
2018-03-21T13:40:09.047Z,6.27
2018-03-21T13:42:42.960Z,6.37
2018-03-21T13:45:16.947Z,6.73
2018-03-21T13:47:51.686Z,10.83
2018-03-21T13:50:26.395Z,6.53
2018-03-21T13:53:00.289Z,8.20
2018-03-21T13:55:34.166Z,6.20
2018-03-21T13:58:07.993Z,6.10
2018-03-21T14:00:41.970Z,7.20
2018-03-21T14:03:16.734Z,6.60
2018-03-21T14:05:50.884Z,5.57
2018-03-21T14:08:24.575Z,5.70
2018-03-21T14:10:58.913Z,7.83
2018-03-21T14:13:32.617Z,8.30
2018-03-21T14:16:06.643Z,7.77
2018-03-21T14:18:40.494Z,8.00
2018-03-21T14:21:14.227Z,7.33
2018-03-21T14:23:48.753Z,7.80
2018-03-21T14:26:22.868Z,8.30
2018-03-21T14:28:56.793Z,8.27
2018-03-21T14:31:31.513Z,9.53
2018-03-21T14:34:05.850Z,8.47
2018-03-21T14:36:40.036Z,7.27
2018-03-21T14:39:13.874Z,8.43
2018-03-21T14:41:47.687Z,8.33
2018-03-21T14:44:21.466Z,7.93
2018-03-21T14:46:55.955Z,9.53
2018-03-21T14:49:30.906Z,6.40
2018-03-21T14:52:05.165Z,8.77
2018-03-21T14:54:39.706Z,7.47
2018-03-21T14:57:13.880Z,6.30
2018-03-21T14:59:47.596Z,6.43
2018-03-21T15:08:18.577Z,7.67
2018-03-21T15:10:52.901Z,7.43
2018-03-21T15:13:27.696Z,6.97
2018-03-21T15:16:01.764Z,6.83
2018-03-21T15:18:35.921Z,7.70
2018-03-21T15:21:09.881Z,7.27
2018-03-21T15:23:44.949Z,6.67
2018-03-21T15:26:19.928Z,7.13
2018-03-21T15:28:53.936Z,6.87
2018-03-21T15:31:27.844Z,6.50
2018-03-21T15:34:01.959Z,4.47
2018-03-21T15:36:35.904Z,4.10
2018-03-21T15:39:10.111Z,5.17
2018-03-21T15:41:44.031Z,4.63
2018-03-21T15:44:18.896Z,4.20
2018-03-21T15:46:53.017Z,5.43
2018-03-21T15:49:28.038Z,5.90
2018-03-21T15:52:02.059Z,6.10
2018-03-21T15:54:35.740Z,8.77
2018-03-21T15:57:09.733Z,7.60
2018-03-21T15:59:43.554Z,6.57
2018-03-21T16:02:17.907Z,6.53
2018-03-21T16:04:52.355Z,6.30
2018-03-21T16:07:26.919Z,5.53
2018-03-21T16:10:01.848Z,7.50
2018-03-21T16:12:35.730Z,6.27
2018-03-21T16:15:09.768Z,7.27
2018-03-21T16:17:43.562Z,6.63
2018-03-21T16:20:17.630Z,8.27
2018-03-21T16:22:52.107Z,7.50
2018-03-21T16:25:26.973Z,5.67
2018-03-21T16:28:01.115Z,6.97
2018-03-21T16:30:35.928Z,8.60
2018-03-21T16:33:11.032Z,6.50
2018-03-21T16:35:45.091Z,5.80
2018-03-21T16:38:19.753Z,6.50
2018-03-21T16:40:54.802Z,7.30
2018-03-21T16:43:28.729Z,7.20
2018-03-21T16:46:02.843Z,6.97
2018-03-21T16:48:36.831Z,7.70
2018-03-21T16:51:11.472Z,7.00
2018-03-21T16:53:45.595Z,7.20
2018-03-21T16:56:19.665Z,7.40
2018-03-21T16:58:54.499Z,8.30
2018-03-21T17:01:29.644Z,7.07
2018-03-21T17:04:03.612Z,6.30
2018-03-21T17:06:37.409Z,7.10
2018-03-21T17:09:12.193Z,7.00
2018-03-21T17:11:47.531Z,6.70
2018-03-21T17:14:21.880Z,6.40
2018-03-21T17:16:55.732Z,7.47
2018-03-21T17:19:30.100Z,7.37
2018-03-21T17:22:04.305Z,7.40
2018-03-21T17:24:39.024Z,6.27
2018-03-21T17:27:13.023Z,7.50
2018-03-21T17:29:46.871Z,7.83
2018-03-21T17:32:20.849Z,7.50
2018-03-21T17:34:55.479Z,7.10
2018-03-21T17:37:29.626Z,8.43
2018-03-21T17:40:03.241Z,6.63
2018-03-21T17:42:37.083Z,8.17
2018-03-21T17:45:10.937Z,6.93
2018-03-21T17:47:44.597Z,6.83
2018-03-21T17:50:19.418Z,8.37
2018-03-21T17:52:54.180Z,7.17
2018-03-21T17:55:28.365Z,8.20
2018-03-21T17:58:02.112Z,8.13
2018-03-21T18:00:36.856Z,7.80
2018-03-21T18:03:11.011Z,8.60
2018-03-21T18:05:44.904Z,8.17
2018-03-21T18:08:18.920Z,8.47
2018-03-21T18:10:53.008Z,8.87
2018-03-21T18:13:26.895Z,9.10
2018-03-21T18:16:00.708Z,9.77
2018-03-21T18:18:35.525Z,9.90
2018-03-21T18:21:10.521Z,8.87
2018-03-21T18:23:45.513Z,8.23
2018-03-21T18:26:20.692Z,8.30
2018-03-21T18:28:55.130Z,9.20
2018-03-21T18:31:29.241Z,9.93
2018-03-21T18:34:03.382Z,8.90
2018-03-21T18:36:37.451Z,8.60
2018-03-21T18:39:11.819Z,8.60
2018-03-21T18:41:46.057Z,9.37
2018-03-21T18:44:21.021Z,7.87
2018-03-21T18:46:55.431Z,8.10
2018-03-21T18:49:29.483Z,9.43
2018-03-21T18:52:03.500Z,9.20
2018-03-21T18:54:37.348Z,9.10
2018-03-21T18:57:11.205Z,8.20
2018-03-21T18:59:44.982Z,7.60
2018-03-21T19:02:19.690Z,8.37
2018-03-21T19:04:53.831Z,8.07
2018-03-21T19:07:27.827Z,9.20
2018-03-21T19:10:02.551Z,7.87
2018-03-21T19:12:36.983Z,7.97
2018-03-21T19:15:12.104Z,7.47
2018-03-21T19:17:46.183Z,7.13
2018-03-21T19:20:20.396Z,7.90
2018-03-21T19:22:55.629Z,7.50
2018-03-21T19:25:29.856Z,7.87
2018-03-21T19:28:04.156Z,6.90
2018-03-21T19:30:38.737Z,7.87
2018-03-21T19:33:12.472Z,7.60
2018-03-21T19:35:47.113Z,7.10
2018-03-21T19:38:20.976Z,6.97
2018-03-21T19:40:55.356Z,7.47
2018-03-21T19:43:29.442Z,8.13
2018-03-21T19:46:03.001Z,7.77
2018-03-21T19:48:36.925Z,7.53
2018-03-21T19:51:11.551Z,8.33
2018-03-21T19:53:45.748Z,8.43
2018-03-21T19:56:19.447Z,7.80
2018-03-21T19:58:54.089Z,7.77
2018-03-21T20:01:28.232Z,8.73
2018-03-21T20:04:02.364Z,8.63
2018-03-21T20:06:36.154Z,8.67
2018-03-21T20:09:10.895Z,7.20
2018-03-21T20:11:45.092Z,8.27
2018-03-21T20:14:19.127Z,8.10
2018-03-21T20:16:53.754Z,6.30
2018-03-21T20:19:27.948Z,7.63
2018-03-21T20:22:02.549Z,7.60
2018-03-21T20:24:36.592Z,7.37
2018-03-21T20:27:10.771Z,7.50
2018-03-21T20:29:45.136Z,7.07
2018-03-21T20:32:20.212Z,6.70
2018-03-21T20:34:54.737Z,7.57
2018-03-21T20:37:29.268Z,6.77
2018-03-21T20:40:03.643Z,7.47
2018-03-21T20:42:38.914Z,7.03
2018-03-21T20:45:13.631Z,6.80
2018-03-21T20:47:48.272Z,7.13
2018-03-21T20:50:22.644Z,7.30
2018-03-21T20:52:57.005Z,8.10
2018-03-21T20:55:31.556Z,8.98
2018-03-21T20:58:05.775Z,8.20
2018-03-21T21:00:39.608Z,8.00
2018-03-21T21:03:13.395Z,7.93
2018-03-21T21:05:47.161Z,7.77
2018-03-21T21:08:20.678Z,7.83
2018-03-21T21:10:54.263Z,7.80
2018-03-21T21:13:28.718Z,8.57
2018-03-21T21:16:02.277Z,9.60
2018-03-21T21:18:36.208Z,8.93
2018-03-21T21:21:09.800Z,10.70
2018-03-21T21:23:44.206Z,9.77
2018-03-21T21:26:18.393Z,10.30
2018-03-21T21:28:52.370Z,11.60
2018-03-21T21:31:26.973Z,11.30
2018-03-21T21:34:00.832Z,12.07
2018-03-21T21:36:34.635Z,13.57
2018-03-21T21:39:08.444Z,14.43
2018-03-21T21:41:42.435Z,13.53
2018-03-21T21:44:16.377Z,14.00
2018-03-21T21:46:50.583Z,15.87
2018-03-21T21:49:25.355Z,16.93
2018-03-21T21:51:59.491Z,15.50
2018-03-21T21:54:33.628Z,16.37
2018-03-21T21:57:08.084Z,12.17
2018-03-21T21:59:42.132Z,17.13
2018-03-21T22:02:16.083Z,17.40
2018-03-21T22:04:50.635Z,18.87
2018-03-21T22:07:24.935Z,18.63
2018-03-21T22:09:58.704Z,20.07
2018-03-21T22:12:33.390Z,19.37
2018-03-21T22:15:07.288Z,19.83
2018-03-21T22:17:41.479Z,18.80
2018-03-21T22:20:15.461Z,19.40
2018-03-21T22:22:50.055Z,22.67
2018-03-21T22:25:24.215Z,23.37
2018-03-21T22:27:57.958Z,21.13
2018-03-21T22:30:32.090Z,22.60
2018-03-21T22:33:05.996Z,20.37
2018-03-21T22:35:39.943Z,21.83
2018-03-21T22:38:13.861Z,22.50
2018-03-21T22:40:48.027Z,24.50
2018-03-21T22:43:22.730Z,21.90
2018-03-21T22:45:56.682Z,21.17
2018-03-21T22:48:31.387Z,25.10
2018-03-21T22:51:06.027Z,23.77
2018-03-21T22:53:40.822Z,26.53
2018-03-21T22:56:15.037Z,23.00
2018-03-21T22:58:48.891Z,24.27
2018-03-21T23:01:22.762Z,24.13
2018-03-21T23:03:57.378Z,24.03
2018-03-21T23:06:31.252Z,26.23
2018-03-21T23:09:06.051Z,23.80
2018-03-21T23:11:39.927Z,25.20
2018-03-21T23:14:14.468Z,23.97
2018-03-21T23:16:49.216Z,24.77
2018-03-21T23:19:24.003Z,24.97
2018-03-21T23:21:57.963Z,24.57
2018-03-21T23:24:31.853Z,23.73
2018-03-21T23:27:06.346Z,25.50
2018-03-21T23:29:40.590Z,24.87
2018-03-21T23:32:14.526Z,21.97
2018-03-21T23:34:48.537Z,22.20
2018-03-21T23:37:23.117Z,24.63
2018-03-21T23:39:57.197Z,25.57
2018-03-21T23:42:31.137Z,25.87
2018-03-21T23:45:05.015Z,25.03
2018-03-21T23:47:38.914Z,25.20
2018-03-21T23:50:13.492Z,23.33
2018-03-21T23:52:48.209Z,23.50
2018-03-21T23:55:22.928Z,23.47
2018-03-21T23:57:57.085Z,23.10
